createdAt,value
2022-08-23T00:01:31.245Z,50.67
2022-08-23T00:04:02.333Z,50.91
2022-08-23T00:06:29.745Z,50.75
2022-08-23T00:08:56.600Z,51.06
2022-08-23T00:11:36.470Z,50.80
2022-08-23T00:14:16.219Z,51.31
2022-08-23T00:16:43.151Z,51.39
2022-08-23T00:19:12.641Z,51.42
2022-08-23T00:21:40.102Z,51.15
2022-08-23T00:24:08.883Z,51.31
2022-08-23T00:27:05.015Z,51.35
2022-08-23T00:29:33.692Z,51.47
2022-08-23T00:32:00.740Z,51.24
2022-08-23T00:34:28.355Z,51.40
2022-08-23T00:36:55.577Z,51.81
2022-08-23T00:39:23.613Z,51.81
2022-08-23T00:41:50.866Z,52.02
2022-08-23T00:44:47.270Z,52.13
2022-08-23T00:47:33.736Z,51.63
2022-08-23T00:50:23.633Z,52.09
2022-08-23T00:52:59.034Z,51.96
2022-08-23T00:55:26.657Z,51.76
2022-08-23T00:57:53.465Z,51.78
2022-08-23T01:00:20.742Z,51.85
2022-08-23T01:02:48.631Z,51.92
2022-08-23T01:05:15.486Z,51.85
2022-08-23T01:07:51.733Z,51.73
2022-08-23T01:10:37.982Z,51.54
2022-08-23T01:13:25.815Z,51.55
2022-08-23T01:15:57.034Z,51.75
2022-08-23T01:18:26.385Z,51.83
2022-08-23T01:21:15.223Z,51.42
2022-08-23T01:23:58.029Z,51.64
2022-08-23T01:26:26.105Z,51.76
2022-08-23T01:28:55.940Z,51.73
2022-08-23T01:31:23.610Z,51.69
2022-08-23T01:33:55.409Z,51.92
2022-08-23T01:36:22.886Z,52.06
2022-08-23T01:38:52.013Z,51.86
2022-08-23T01:41:19.378Z,52.10
2022-08-23T01:43:46.384Z,52.34
2022-08-23T01:46:18.135Z,52.03
2022-08-23T01:48:46.413Z,52.07
2022-08-23T01:51:16.783Z,52.06
2022-08-23T01:53:43.982Z,52.22
2022-08-23T01:56:11.047Z,52.27
2022-08-23T01:58:39.265Z,52.48
2022-08-23T02:01:06.892Z,52.12
2022-08-23T02:03:34.529Z,52.41
2022-08-23T02:06:01.231Z,51.95
2022-08-23T02:08:47.058Z,52.32
2022-08-23T02:11:18.826Z,52.37
2022-08-23T02:13:46.447Z,52.05
2022-08-23T02:16:22.201Z,52.13
2022-08-23T02:18:49.269Z,52.13
2022-08-23T02:21:16.320Z,51.80
2022-08-23T02:23:43.526Z,52.20
2022-08-23T02:26:10.623Z,52.09
2022-08-23T02:28:37.597Z,52.15
2022-08-23T02:31:04.444Z,51.76
2022-08-23T02:33:32.942Z,51.80
2022-08-23T02:36:00.370Z,51.72
2022-08-23T02:38:27.110Z,52.03
2022-08-23T02:41:00.964Z,52.14
2022-08-23T02:43:30.131Z,51.93
2022-08-23T02:45:57.871Z,52.09
2022-08-23T02:48:24.657Z,52.19
2022-08-23T02:51:01.144Z,52.12
2022-08-23T02:53:29.363Z,52.17
2022-08-23T02:55:56.738Z,51.86
2022-08-23T02:58:24.193Z,51.91
2022-08-23T03:00:51.070Z,52.02
2022-08-23T03:03:22.526Z,51.98
2022-08-23T03:05:50.282Z,51.87
2022-08-23T03:08:19.312Z,52.04
2022-08-23T03:10:50.767Z,52.16
2022-08-23T03:13:17.717Z,51.75
2022-08-23T03:15:56.316Z,52.06
2022-08-23T03:18:24.898Z,52.27
2022-08-23T03:20:51.794Z,52.36
2022-08-23T03:23:18.581Z,52.23
2022-08-23T03:25:45.741Z,52.28
2022-08-23T03:28:26.709Z,52.05
2022-08-23T03:30:54.639Z,52.37
2022-08-23T03:33:21.813Z,51.95
2022-08-23T03:35:49.482Z,52.36
2022-08-23T03:38:17.735Z,52.37
2022-08-23T03:40:45.058Z,52.54
2022-08-23T03:43:11.946Z,52.42
2022-08-23T03:45:39.045Z,52.45
2022-08-23T03:48:07.078Z,52.35
2022-08-23T03:50:35.356Z,52.43
2022-08-23T03:53:02.190Z,52.54
2022-08-23T03:55:29.232Z,52.70
2022-08-23T03:57:56.691Z,52.59
2022-08-23T04:00:23.550Z,52.79
2022-08-23T04:02:53.077Z,52.93
2022-08-23T04:05:23.082Z,52.71
2022-08-23T04:07:50.014Z,52.71
2022-08-23T04:10:17.649Z,52.85
2022-08-23T04:12:48.491Z,52.70
2022-08-23T04:15:17.166Z,52.55
2022-08-23T04:17:43.968Z,52.81
2022-08-23T04:20:11.176Z,52.90
2022-08-23T04:22:52.499Z,53.06
2022-08-23T04:25:33.697Z,52.94
2022-08-23T04:28:03.958Z,52.80
2022-08-23T04:30:32.317Z,52.84
2022-08-23T04:32:59.918Z,52.74
2022-08-23T04:35:29.946Z,52.83
2022-08-23T04:37:57.149Z,53.07
2022-08-23T04:40:43.633Z,53.11
2022-08-23T04:43:10.466Z,52.97
2022-08-23T04:45:39.248Z,53.20
2022-08-23T04:48:11.912Z,53.14
2022-08-23T04:50:43.154Z,53.10
2022-08-23T04:53:19.099Z,52.99
2022-08-23T04:56:02.882Z,53.04
2022-08-23T04:58:31.427Z,53.35
2022-08-23T05:01:01.101Z,53.12
2022-08-23T05:03:29.896Z,52.89
2022-08-23T05:05:58.737Z,52.99
2022-08-23T05:08:33.050Z,53.08
2022-08-23T05:11:05.156Z,53.15
2022-08-23T05:13:34.891Z,53.04
2022-08-23T05:16:04.322Z,53.28
2022-08-23T05:18:35.027Z,52.93
2022-08-23T05:21:02.226Z,53.51
2022-08-23T05:23:31.974Z,52.89
2022-08-23T05:26:08.364Z,52.93
2022-08-23T05:28:42.543Z,52.98
2022-08-23T05:31:19.314Z,53.03
2022-08-23T05:33:51.719Z,52.86
2022-08-23T05:36:27.564Z,53.16
2022-08-23T05:38:55.093Z,52.60
2022-08-23T05:41:22.041Z,52.85
2022-08-23T05:43:56.234Z,53.24
2022-08-23T05:46:28.342Z,52.87
2022-08-23T05:49:15.565Z,52.79
2022-08-23T05:51:51.545Z,52.83
2022-08-23T05:54:20.480Z,52.87
2022-08-23T05:56:59.961Z,52.59
2022-08-23T05:59:27.144Z,52.49
2022-08-23T06:01:54.128Z,52.71
2022-08-23T06:04:21.535Z,52.55
2022-08-23T06:06:49.011Z,52.42
2022-08-23T06:09:18.122Z,52.71
2022-08-23T06:11:46.551Z,52.34
2022-08-23T06:14:14.474Z,52.84
2022-08-23T06:16:47.993Z,52.65
2022-08-23T06:19:19.222Z,52.62
2022-08-23T06:21:49.800Z,52.56
2022-08-23T06:24:23.756Z,52.19
2022-08-23T06:26:59.672Z,52.38
2022-08-23T06:29:26.634Z,52.14
2022-08-23T06:32:13.395Z,52.58
2022-08-23T06:34:52.103Z,52.61
2022-08-23T06:37:52.962Z,51.91
2022-08-23T06:40:42.680Z,52.40
2022-08-23T06:43:25.666Z,52.01
2022-08-23T06:46:24.368Z,52.09
2022-08-23T06:48:51.833Z,52.34
2022-08-23T06:51:24.040Z,52.28
2022-08-23T06:54:26.572Z,52.04
2022-08-23T06:57:00.331Z,52.21
2022-08-23T06:59:31.265Z,51.93
2022-08-23T07:02:14.656Z,52.13
2022-08-23T07:05:00.122Z,52.08
2022-08-23T07:07:44.065Z,52.04
2022-08-23T07:10:26.437Z,52.04
2022-08-23T07:12:55.478Z,51.99
2022-08-23T07:15:22.737Z,51.94
2022-08-23T07:17:50.037Z,51.98
2022-08-23T07:20:19.425Z,51.87
2022-08-23T07:22:46.787Z,51.67
2022-08-23T07:25:14.130Z,51.77
2022-08-23T07:27:45.046Z,51.52
2022-08-23T07:30:14.431Z,51.98
2022-08-23T07:32:41.187Z,52.00
2022-08-23T07:35:18.315Z,51.52
2022-08-23T07:37:46.059Z,51.36
2022-08-23T07:40:20.603Z,51.35
2022-08-23T07:42:52.574Z,51.67
2022-08-23T07:45:23.082Z,51.44
2022-08-23T07:47:55.014Z,51.33
2022-08-23T07:50:30.416Z,50.97
2022-08-23T07:53:03.151Z,51.17
2022-08-23T07:55:30.599Z,50.79
2022-08-23T07:58:13.873Z,50.99
2022-08-23T08:00:54.262Z,50.84
2022-08-23T08:03:55.042Z,50.89
2022-08-23T08:06:27.254Z,51.02
2022-08-23T08:08:54.498Z,51.00
2022-08-23T08:11:24.662Z,50.97
2022-08-23T08:13:51.744Z,50.39
2022-08-23T08:16:29.864Z,50.61
2022-08-23T08:18:59.468Z,50.20
2022-08-23T08:21:45.615Z,50.19
2022-08-23T08:24:32.577Z,49.82
2022-08-23T08:27:07.895Z,49.93
2022-08-23T08:29:34.976Z,49.77
2022-08-23T08:32:01.909Z,49.51
2022-08-23T08:34:30.050Z,48.62
2022-08-23T08:36:58.714Z,48.72
2022-08-23T08:39:31.705Z,48.39
2022-08-23T08:42:13.098Z,47.95
2022-08-23T08:44:53.388Z,47.76
2022-08-23T08:47:49.333Z,47.70
2022-08-23T08:50:27.214Z,47.48
2022-08-23T08:53:16.305Z,47.54
2022-08-23T08:56:29.799Z,46.48
2022-08-23T08:59:28.103Z,46.09
2022-08-23T09:01:55.640Z,45.57
2022-08-23T09:04:30.422Z,45.28
2022-08-23T09:07:32.026Z,45.46
2022-08-23T09:10:03.938Z,44.67
2022-08-23T09:12:34.210Z,44.58
2022-08-23T09:15:19.704Z,44.58
2022-08-23T09:17:57.917Z,43.83
2022-08-23T09:20:32.917Z,44.06
2022-08-23T09:23:13.147Z,43.44
2022-08-23T09:25:41.972Z,42.94
2022-08-23T09:28:16.014Z,42.67
2022-08-23T09:31:08.331Z,42.91
2022-08-23T09:33:46.026Z,42.91
2022-08-23T09:36:36.969Z,42.47
2022-08-23T09:39:10.185Z,42.68
2022-08-23T09:41:42.085Z,42.04
2022-08-23T09:44:16.876Z,41.34
2022-08-23T09:46:44.343Z,41.40
2022-08-23T09:49:25.722Z,41.28
2022-08-23T09:51:58.346Z,41.22
2022-08-23T09:54:34.698Z,41.53
2022-08-23T09:57:06.104Z,41.23
2022-08-23T09:59:41.873Z,40.74
2022-08-23T10:02:33.546Z,39.96
2022-08-23T10:05:28.514Z,40.06
2022-08-23T10:08:01.059Z,40.55
2022-08-23T10:10:43.796Z,40.05
2022-08-23T10:13:16.669Z,39.75
2022-08-23T10:15:49.671Z,39.83
2022-08-23T10:18:39.227Z,38.83
2022-08-23T10:21:29.419Z,38.95
2022-08-23T10:24:11.846Z,38.25
2022-08-23T10:26:45.735Z,37.75
2022-08-23T10:29:36.742Z,37.47
2022-08-23T10:33:01.564Z,37.78
2022-08-23T10:35:51.550Z,37.60
2022-08-23T10:38:31.253Z,37.58
2022-08-23T10:41:18.552Z,37.38
2022-08-23T10:44:15.095Z,36.78
2022-08-23T10:46:53.741Z,36.69
2022-08-23T10:49:21.417Z,36.38
2022-08-23T10:51:51.913Z,36.24
2022-08-23T10:54:35.444Z,35.80
2022-08-23T10:57:06.371Z,35.29
2022-08-23T10:59:34.834Z,35.44
2022-08-23T11:02:25.139Z,35.01
2022-08-23T11:05:10.511Z,34.95
2022-08-23T11:07:41.463Z,34.74
2022-08-23T11:10:26.046Z,34.71
2022-08-23T11:12:55.230Z,34.20
2022-08-23T11:15:27.805Z,34.02
2022-08-23T11:17:59.216Z,33.99
2022-08-23T11:20:52.153Z,34.25
2022-08-23T11:23:42.441Z,33.25
2022-08-23T11:26:37.600Z,33.04
2022-08-23T11:29:07.638Z,33.17
2022-08-23T11:31:43.046Z,33.08
2022-08-23T11:34:29.727Z,33.78
2022-08-23T11:37:18.634Z,33.74
2022-08-23T11:39:59.225Z,33.43
2022-08-23T11:42:38.166Z,33.47
2022-08-23T11:45:27.423Z,33.52
2022-08-23T11:48:17.387Z,34.13
2022-08-23T11:51:05.393Z,34.39
2022-08-23T11:53:53.678Z,34.51
2022-08-23T11:56:38.521Z,34.46
2022-08-23T11:59:54.571Z,34.44
2022-08-23T12:02:38.351Z,34.40
2022-08-23T12:05:42.806Z,34.35
2022-08-23T12:08:09.586Z,34.04
2022-08-23T12:10:42.921Z,33.49
2022-08-23T12:13:20.610Z,32.91
2022-08-23T12:16:16.848Z,33.02
2022-08-23T12:18:47.729Z,32.89
2022-08-23T12:21:29.510Z,33.02
2022-08-23T12:24:03.036Z,33.30
2022-08-23T12:26:38.478Z,32.91
2022-08-23T12:29:44.076Z,33.62
2022-08-23T12:32:19.653Z,33.82
2022-08-23T12:35:04.294Z,33.58
2022-08-23T12:37:43.649Z,34.09
2022-08-23T12:40:22.981Z,34.11
2022-08-23T12:42:51.413Z,34.49
2022-08-23T12:45:21.491Z,34.30
2022-08-23T12:48:00.216Z,34.72
2022-08-23T12:50:33.123Z,34.33
2022-08-23T12:53:08.368Z,34.92
2022-08-23T12:55:47.420Z,35.51
2022-08-23T12:58:16.360Z,36.01
2022-08-23T13:00:53.402Z,36.40
2022-08-23T13:03:34.013Z,36.27
2022-08-23T13:06:05.370Z,36.65
2022-08-23T13:08:48.052Z,36.93
2022-08-23T13:11:19.848Z,37.52
2022-08-23T13:13:46.993Z,37.72
2022-08-23T13:16:27.073Z,37.76
2022-08-23T13:18:56.324Z,38.12
2022-08-23T13:21:23.007Z,38.60
2022-08-23T13:23:53.832Z,38.52
2022-08-23T13:26:39.725Z,38.60
2022-08-23T13:29:15.213Z,38.98
2022-08-23T13:32:03.418Z,39.47
2022-08-23T13:34:40.025Z,39.26
2022-08-23T13:37:27.417Z,39.38
2022-08-23T13:39:58.066Z,39.86
2022-08-23T13:42:29.020Z,40.18
2022-08-23T13:44:55.770Z,40.05
2022-08-23T13:47:28.509Z,40.13
2022-08-23T13:49:56.160Z,40.35
2022-08-23T13:52:50.991Z,39.94
2022-08-23T13:55:13.062Z,39.93
2022-08-23T13:57:41.495Z,39.68
2022-08-23T14:00:10.796Z,39.72
2022-08-23T14:02:38.291Z,40.13
2022-08-23T14:05:09.627Z,40.21
2022-08-23T14:07:36.635Z,39.93
2022-08-23T14:10:04.683Z,39.81
2022-08-23T14:12:33.489Z,39.97
2022-08-23T14:15:02.846Z,40.03
2022-08-23T14:17:30.997Z,40.09
2022-08-23T14:22:44.857Z,36.78
2022-08-23T14:25:12.612Z,35.83
2022-08-23T14:27:41.382Z,35.01
2022-08-23T14:30:11.501Z,34.26
2022-08-23T14:32:41.290Z,33.80
2022-08-23T14:35:08.264Z,33.18
2022-08-23T14:40:24.433Z,31.71
2022-08-23T14:42:51.136Z,31.66
2022-08-23T14:45:18.569Z,31.67
2022-08-23T14:47:45.652Z,31.25
2022-08-23T14:50:13.722Z,31.18
2022-08-23T14:52:45.707Z,31.41
2022-08-23T14:55:13.829Z,31.10
2022-08-23T14:57:41.225Z,31.50
2022-08-23T15:00:13.741Z,31.67
2022-08-23T15:02:46.644Z,31.60
2022-08-23T15:05:14.516Z,30.73
2022-08-23T15:07:41.372Z,30.37
2022-08-23T15:10:10.129Z,30.42
2022-08-23T15:15:24.422Z,29.92
2022-08-23T15:17:54.805Z,29.53
2022-08-23T15:20:27.932Z,29.20
2022-08-23T15:22:55.572Z,28.88
2022-08-23T15:25:23.926Z,28.87
2022-08-23T15:27:51.154Z,29.05
2022-08-23T15:30:18.225Z,29.00
2022-08-23T15:32:52.783Z,28.88
2022-08-23T15:35:25.363Z,28.23
2022-08-23T15:37:54.510Z,26.81
2022-08-23T15:40:21.442Z,23.90
2022-08-23T15:42:49.076Z,20.71
2022-08-23T15:45:15.905Z,20.15
2022-08-23T15:47:53.291Z,20.43
2022-08-23T15:50:23.280Z,19.09
2022-08-23T15:52:50.615Z,17.50
2022-08-23T15:55:17.722Z,15.80
2022-08-23T15:57:47.218Z,14.40
2022-08-23T16:00:17.723Z,13.97
2022-08-23T16:03:14.447Z,14.07
2022-08-23T16:05:32.245Z,13.44
2022-08-23T16:07:59.684Z,13.14
2022-08-23T16:10:27.502Z,13.70
2022-08-23T16:12:55.286Z,13.51
2022-08-23T16:15:22.387Z,13.11
2022-08-23T16:17:49.854Z,12.51
2022-08-23T16:20:17.677Z,12.57
2022-08-23T16:22:44.415Z,11.97
2022-08-23T16:25:11.286Z,11.76
2022-08-23T16:27:38.126Z,14.36
2022-08-23T16:30:06.014Z,16.40
2022-08-23T16:32:32.706Z,16.74
2022-08-23T16:34:59.442Z,15.82
2022-08-23T16:37:26.205Z,15.94
2022-08-23T16:39:54.459Z,16.08
2022-08-23T16:42:21.361Z,16.39
2022-08-23T16:44:48.687Z,16.04
2022-08-23T16:47:16.277Z,15.46
2022-08-23T16:49:43.660Z,14.79
2022-08-23T16:52:10.796Z,14.40
2022-08-23T16:54:39.179Z,15.61
2022-08-23T16:57:06.212Z,17.60
2022-08-23T16:59:36.171Z,19.58
2022-08-23T17:02:10.880Z,21.29
2022-08-23T17:04:38.053Z,22.13
2022-08-23T17:07:05.127Z,23.33
2022-08-23T17:09:31.940Z,23.93
2022-08-23T17:11:58.809Z,24.18
2022-08-23T17:14:26.324Z,23.52
2022-08-23T17:16:53.273Z,24.03
2022-08-23T17:19:20.094Z,25.22
2022-08-23T17:21:46.832Z,26.27
2022-08-23T17:24:13.639Z,27.06
2022-08-23T17:26:40.326Z,28.38
2022-08-23T17:29:09.352Z,28.82
2022-08-23T17:31:36.949Z,29.43
2022-08-23T17:34:04.478Z,30.39
2022-08-23T17:36:31.113Z,30.85
2022-08-23T17:38:59.369Z,30.98
2022-08-23T17:41:27.530Z,31.25
2022-08-23T17:43:55.322Z,31.80
2022-08-23T17:46:22.661Z,32.36
2022-08-23T17:48:49.378Z,33.14
2022-08-23T17:51:16.095Z,33.04
2022-08-23T17:53:43.402Z,33.79
2022-08-23T17:56:12.336Z,33.84
2022-08-23T17:58:39.459Z,34.40
2022-08-23T18:01:06.521Z,34.78
2022-08-23T18:03:33.632Z,35.65
2022-08-23T18:06:00.578Z,35.77
2022-08-23T18:08:27.344Z,36.25
2022-08-23T18:10:54.007Z,36.45
2022-08-23T18:13:20.722Z,36.63
2022-08-23T18:15:47.478Z,36.76
2022-08-23T18:18:14.515Z,36.96
2022-08-23T18:20:41.377Z,37.43
2022-08-23T18:23:08.330Z,38.13
2022-08-23T18:25:35.395Z,38.43
2022-08-23T18:28:09.774Z,39.10
2022-08-23T18:30:40.206Z,39.68
2022-08-23T18:33:07.086Z,39.81
2022-08-23T18:35:34.580Z,39.90
2022-08-23T18:38:01.314Z,40.20
2022-08-23T18:40:29.395Z,40.45
2022-08-23T18:42:56.429Z,40.25
2022-08-23T18:45:23.305Z,40.51
2022-08-23T18:47:50.205Z,40.66
2022-08-23T18:50:17.874Z,41.06
2022-08-23T18:52:44.743Z,41.62
2022-08-23T18:55:11.483Z,41.62
2022-08-23T18:57:39.018Z,42.32
2022-08-23T19:00:09.690Z,42.20
2022-08-23T19:02:36.433Z,43.08
2022-08-23T19:05:03.705Z,43.50
2022-08-23T19:07:30.696Z,43.20
2022-08-23T19:09:57.419Z,43.42
2022-08-23T19:12:24.204Z,43.26
2022-08-23T19:14:50.867Z,43.54
2022-08-23T19:17:17.606Z,43.44
2022-08-23T19:19:44.293Z,43.53
2022-08-23T19:22:11.006Z,43.65
2022-08-23T19:24:37.825Z,43.95
2022-08-23T19:27:04.989Z,43.92
2022-08-23T19:29:31.955Z,43.87
2022-08-23T19:31:59.342Z,44.17
2022-08-23T19:34:26.837Z,44.24
2022-08-23T19:37:00.686Z,44.41
2022-08-23T19:39:29.050Z,45.00
2022-08-23T19:41:55.716Z,44.84
2022-08-23T19:44:22.684Z,44.93
2022-08-23T19:46:50.139Z,45.14
2022-08-23T19:49:16.942Z,44.92
2022-08-23T19:51:43.994Z,44.85
2022-08-23T19:54:12.541Z,45.27
2022-08-23T19:56:44.859Z,44.96
2022-08-23T19:59:16.564Z,44.92
2022-08-23T20:01:43.401Z,44.99
2022-08-23T20:04:10.984Z,45.40
2022-08-23T20:06:37.829Z,45.62
2022-08-23T20:09:05.810Z,45.45
2022-08-23T20:11:32.770Z,45.98
2022-08-23T20:14:00.216Z,45.67
2022-08-23T20:16:28.433Z,45.98
2022-08-23T20:18:55.323Z,46.13
2022-08-23T20:21:23.611Z,46.51
2022-08-23T20:24:04.124Z,46.16
2022-08-23T20:26:35.058Z,46.37
2022-08-23T20:29:04.182Z,46.10
2022-08-23T20:31:36.090Z,46.50
2022-08-23T20:34:04.774Z,46.82
2022-08-23T20:36:33.409Z,46.65
2022-08-23T20:39:01.238Z,47.77
2022-08-23T20:41:29.735Z,48.24
2022-08-23T20:43:57.069Z,48.36
2022-08-23T20:46:24.318Z,48.20
2022-08-23T20:48:52.021Z,48.07
2022-08-23T20:51:19.664Z,47.95
2022-08-23T20:53:46.715Z,47.89
2022-08-23T20:56:13.482Z,47.67
2022-08-23T20:58:40.297Z,47.62
2022-08-23T21:01:10.343Z,48.04
2022-08-23T21:03:38.678Z,47.79
2022-08-23T21:06:07.584Z,48.09
2022-08-23T21:08:35.136Z,47.79
2022-08-23T21:11:08.958Z,47.86
2022-08-23T21:13:35.994Z,47.96
2022-08-23T21:16:02.939Z,48.38
2022-08-23T21:18:29.666Z,48.26
2022-08-23T21:20:56.790Z,48.38
2022-08-23T21:23:24.766Z,48.31
2022-08-23T21:25:56.102Z,48.90
2022-08-23T21:28:24.303Z,48.61
2022-08-23T21:30:51.163Z,48.40
2022-08-23T21:33:19.263Z,48.31
2022-08-23T21:35:46.140Z,48.47
2022-08-23T21:38:12.837Z,48.58
2022-08-23T21:40:39.862Z,48.67
2022-08-23T21:43:06.618Z,48.98
2022-08-23T21:45:33.822Z,48.79
2022-08-23T21:48:01.435Z,48.76
2022-08-23T21:50:28.632Z,48.95
2022-08-23T21:52:56.577Z,49.05
2022-08-23T21:55:36.901Z,49.10
2022-08-23T21:58:03.984Z,49.30
2022-08-23T22:00:31.303Z,49.53
2022-08-23T22:02:58.566Z,49.38
2022-08-23T22:05:26.546Z,49.65
2022-08-23T22:07:53.766Z,49.59
2022-08-23T22:10:21.074Z,49.84
2022-08-23T22:12:47.798Z,49.59
2022-08-23T22:15:15.086Z,49.52
2022-08-23T22:17:41.868Z,49.68
2022-08-23T22:20:09.609Z,49.65
2022-08-23T22:22:36.796Z,50.12
2022-08-23T22:25:04.064Z,49.95
2022-08-23T22:27:32.402Z,50.23
2022-08-23T22:29:59.484Z,50.43
2022-08-23T22:32:26.657Z,50.53
2022-08-23T22:34:53.396Z,50.38
2022-08-23T22:37:20.375Z,50.34
2022-08-23T22:39:47.719Z,50.55
2022-08-23T22:42:16.332Z,50.77
2022-08-23T22:44:43.030Z,50.60
2022-08-23T22:47:10.051Z,50.55
2022-08-23T22:49:37.983Z,50.67
2022-08-23T22:52:04.800Z,50.66
2022-08-23T22:54:31.490Z,50.95
2022-08-23T22:56:58.465Z,50.91
2022-08-23T22:59:27.666Z,51.19
2022-08-23T23:01:59.869Z,51.16
2022-08-23T23:04:30.005Z,51.01
2022-08-23T23:06:57.440Z,51.16
2022-08-23T23:09:24.778Z,51.35
2022-08-23T23:11:52.145Z,51.46
2022-08-23T23:14:20.633Z,51.27
2022-08-23T23:16:49.427Z,51.12
2022-08-23T23:19:36.235Z,51.76
2022-08-23T23:22:04.002Z,51.57
2022-08-23T23:24:37.777Z,51.59
2022-08-23T23:27:04.907Z,51.52
2022-08-23T23:29:32.375Z,51.75
2022-08-23T23:31:59.535Z,51.76
2022-08-23T23:34:27.896Z,51.68
2022-08-23T23:36:56.378Z,51.61
2022-08-23T23:39:23.466Z,51.67
2022-08-23T23:41:50.640Z,51.72
2022-08-23T23:44:17.304Z,51.69
2022-08-23T23:46:56.460Z,51.48
2022-08-23T23:49:23.510Z,51.79
2022-08-23T23:51:58.689Z,51.90
2022-08-23T23:54:25.650Z,51.91
2022-08-23T23:56:52.390Z,51.90
2022-08-23T23:59:19.598Z,51.52
